Time;durP1;ratioP1;P1;durP2;ratioP2;P2;SDS_P1;SDS_P2;PMS_P1;PMS_P2;Temp;Humidity;BMP_temperature;BMP_pressure;BME280_temperature;BME280_humidity;BME280_pressure;Samples;Min_cycle;Max_cycle;Signal;HPM_P1;HPM_P2
2023/06/16 00:01:17;;;;;;;3.90;2.53;;;17.30;99.90;;;;;;12415088;28;20465;-36
2023/06/16 00:07:19;;;;;;;5.45;2.60;;;17.30;99.90;;;;;;12421428;28;20175;-36
2023/06/16 00:13:22;;;;;;;4.50;2.63;;;17.30;99.90;;;;;;12398803;28;20042;-36
2023/06/16 00:19:29;;;;;;;4.28;2.55;;;17.20;99.90;;;;;;12424165;28;20462;-36
2023/06/16 00:25:30;;;;;;;8.57;3.05;;;17.10;99.90;;;;;;12421058;28;20050;-36
2023/06/16 00:31:33;;;;;;;8.05;3.38;;;17.00;99.90;;;;;;12406189;28;20064;-36
2023/06/16 00:37:34;;;;;;;4.45;2.58;;;16.90;99.90;;;;;;12404820;28;20407;-36
2023/06/16 00:43:37;;;;;;;5.10;2.95;;;17.00;99.90;;;;;;12421237;28;20050;-36
2023/06/16 00:49:39;;;;;;;4.50;2.65;;;17.00;99.90;;;;;;12418958;28;20120;-36
2023/06/16 00:55:42;;;;;;;5.85;3.00;;;16.90;99.90;;;;;;12419580;28;20049;-36
2023/06/16 01:01:44;;;;;;;4.75;2.97;;;16.80;99.90;;;;;;12399133;28;20125;-36
2023/06/16 01:07:52;;;;;;;4.60;2.63;;;16.80;99.90;;;;;;12406996;28;20162;-36
2023/06/16 01:14:09;;;;;;;4.82;2.70;;;16.70;99.90;;;;;;12408998;28;20085;-36
2023/06/16 01:20:33;;;;;;;5.72;2.85;;;16.50;99.90;;;;;;12423340;28;20061;-36
2023/06/16 01:26:38;;;;;;;4.60;2.97;;;16.50;99.90;;;;;;12425635;28;20730;-36
2023/06/16 01:32:43;;;;;;;6.22;2.92;;;16.50;99.90;;;;;;12400931;28;20410;-36
2023/06/16 01:38:47;;;;;;;5.72;3.10;;;16.40;99.90;;;;;;12415229;28;20050;-36
2023/06/16 01:44:49;;;;;;;4.72;2.78;;;16.30;99.90;;;;;;12410555;28;20425;-37
2023/06/16 01:50:51;;;;;;;7.63;3.00;;;16.20;99.90;;;;;;12426470;28;20065;-36
2023/06/16 01:56:54;;;;;;;6.20;3.13;;;16.00;99.90;;;;;;12403156;28;20054;-36
2023/06/16 02:03:16;;;;;;;4.00;2.53;;;15.80;99.90;;;;;;12413752;28;20050;-36
2023/06/16 02:09:21;;;;;;;6.50;3.40;;;15.60;99.90;;;;;;12404206;28;20458;-37
2023/06/16 02:15:23;;;;;;;5.45;3.03;;;15.50;99.90;;;;;;12406946;28;20052;-36
2023/06/16 02:21:25;;;;;;;8.65;3.10;;;15.50;99.90;;;;;;12424340;28;20042;-36
2023/06/16 02:27:27;;;;;;;7.35;3.70;;;15.60;99.90;;;;;;12400781;28;20184;-36
2023/06/16 02:33:29;;;;;;;5.25;3.67;;;15.40;99.90;;;;;;12407551;28;20045;-36
2023/06/16 02:39:31;;;;;;;5.35;3.28;;;15.30;99.90;;;;;;12401963;28;20038;-36
2023/06/16 02:45:33;;;;;;;7.03;3.30;;;15.00;99.90;;;;;;12414432;28;20041;-37
2023/06/16 02:51:36;;;;;;;5.68;3.30;;;15.00;99.90;;;;;;12379548;28;20039;-36
2023/06/16 02:57:38;;;;;;;5.18;3.35;;;15.10;99.90;;;;;;12407348;28;20051;-36
2023/06/16 03:03:40;;;;;;;7.18;3.60;;;15.10;99.90;;;;;;12402195;28;20047;-36
2023/06/16 03:09:42;;;;;;;7.35;3.50;;;15.20;99.90;;;;;;12427067;28;20054;-36
2023/06/16 03:15:45;;;;;;;5.57;3.42;;;15.10;99.90;;;;;;12404227;28;20049;-36
2023/06/16 03:21:50;;;;;;;5.40;3.92;;;15.20;99.90;;;;;;12416372;28;20051;-37
2023/06/16 03:27:52;;;;;;;8.00;3.67;;;15.20;99.90;;;;;;12424469;28;20065;-36
2023/06/16 03:33:54;;;;;;;7.75;3.47;;;15.20;99.90;;;;;;12410665;28;20042;-36
2023/06/16 03:40:05;;;;;;;6.22;3.90;;;15.10;99.90;;;;;;12398870;28;20133;-36
2023/06/16 03:46:07;;;;;;;5.90;3.97;;;15.20;99.90;;;;;;12421906;28;20467;-36
2023/06/16 03:52:10;;;;;;;7.97;3.80;;;15.10;99.90;;;;;;12411479;28;20511;-36
2023/06/16 03:58:15;;;;;;;4.60;3.35;;;15.10;99.90;;;;;;12399886;28;20045;-36
2023/06/16 04:04:17;;;;;;;7.93;3.78;;;15.10;99.90;;;;;;12404469;28;20050;-36
2023/06/16 04:10:19;;;;;;;7.05;4.13;;;15.20;99.90;;;;;;12414076;28;20419;-36
2023/06/16 04:16:21;;;;;;;8.18;3.85;;;15.00;99.90;;;;;;12398922;28;20081;-35
2023/06/16 04:22:24;;;;;;;6.38;4.47;;;15.00;99.90;;;;;;12413848;28;20255;-36
2023/06/16 04:28:26;;;;;;;8.93;4.38;;;15.10;99.90;;;;;;12405095;28;20521;-36
2023/06/16 04:34:31;;;;;;;6.85;4.55;;;15.10;99.90;;;;;;12405645;28;20093;-36
2023/06/16 04:40:35;;;;;;;6.57;4.35;;;15.10;99.90;;;;;;12406830;28;20133;-36
2023/06/16 04:46:38;;;;;;;6.80;4.57;;;15.10;99.90;;;;;;12411620;28;20417;-36
2023/06/16 04:52:40;;;;;;;9.48;4.25;;;15.10;99.90;;;;;;12377805;28;20062;-37
2023/06/16 04:58:42;;;;;;;6.07;3.80;;;15.00;99.90;;;;;;12399585;28;20054;-37
2023/06/16 05:04:44;;;;;;;10.63;6.18;;;15.10;99.90;;;;;;12385284;28;20038;-36
2023/06/16 05:10:46;;;;;;;8.07;5.55;;;15.10;99.90;;;;;;12414439;28;20053;-36
2023/06/16 05:16:48;;;;;;;9.35;5.50;;;15.20;99.90;;;;;;12419054;28;20045;-36
2023/06/16 05:22:50;;;;;;;9.77;5.18;;;15.30;99.90;;;;;;12419033;28;20082;-36
2023/06/16 05:28:52;;;;;;;10.52;6.57;;;15.30;99.90;;;;;;12394262;28;20085;-37
2023/06/16 05:34:53;;;;;;;8.63;6.15;;;15.40;99.90;;;;;;12386491;28;20054;-36
2023/06/16 05:40:55;;;;;;;7.20;5.78;;;15.50;99.90;;;;;;12410124;28;20478;-36
2023/06/16 05:46:58;;;;;;;8.77;7.28;;;15.50;99.90;;;;;;12417331;28;20129;-36
2023/06/16 05:53:00;;;;;;;8.68;5.90;;;15.70;99.90;;;;;;12404471;28;20043;-36
2023/06/16 05:59:02;;;;;;;8.90;7.15;;;15.80;99.90;;;;;;12392864;28;20038;-36
2023/06/16 06:05:04;;;;;;;12.95;7.63;;;15.80;99.90;;;;;;12409070;28;20054;-36
2023/06/16 06:11:08;;;;;;;9.88;7.10;;;15.80;99.90;;;;;;12425588;28;20050;-36
2023/06/16 06:17:10;;;;;;;11.30;8.50;;;15.90;99.90;;;;;;12410441;28;20057;-38
2023/06/16 06:23:12;;;;;;;12.45;8.43;;;15.90;99.90;;;;;;12406291;28;20054;-36
2023/06/16 06:29:15;;;;;;;11.35;7.43;;;16.10;99.90;;;;;;12418056;28;20140;-37
2023/06/16 06:35:17;;;;;;;14.00;8.80;;;16.20;99.90;;;;;;12413547;28;20050;-36
2023/06/16 06:41:21;;;;;;;12.48;8.73;;;16.00;99.90;;;;;;12412275;28;20053;-37
2023/06/16 06:47:26;;;;;;;11.57;8.00;;;16.20;99.90;;;;;;12413717;28;20042;-37
2023/06/16 06:53:29;;;;;;;10.50;8.05;;;16.40;99.90;;;;;;12390813;28;20558;-37
2023/06/16 06:59:31;;;;;;;16.08;8.85;;;16.80;99.90;;;;;;12415078;28;20050;-36
2023/06/16 07:05:34;;;;;;;9.30;7.15;;;17.10;99.90;;;;;;12424437;28;20059;-37
2023/06/16 07:11:36;;;;;;;11.70;6.75;;;17.90;99.90;;;;;;12405851;28;20057;-37
2023/06/16 07:17:37;;;;;;;13.75;8.73;;;18.10;99.90;;;;;;12420114;28;20050;-36
2023/06/16 07:23:43;;;;;;;9.55;7.55;;;17.50;99.90;;;;;;12423502;28;20644;-37
2023/06/16 07:29:45;;;;;;;14.18;8.80;;;17.80;99.90;;;;;;12390621;28;20065;-37
2023/06/16 07:35:48;;;;;;;12.02;8.90;;;17.90;99.90;;;;;;12408069;28;20514;-36
2023/06/16 07:41:50;;;;;;;12.23;8.13;;;18.00;99.90;;;;;;12418062;28;20061;-37
2023/06/16 07:47:52;;;;;;;14.35;8.52;;;18.10;99.90;;;;;;12426844;28;20058;-37
2023/06/16 07:53:54;;;;;;;13.70;8.98;;;18.30;99.90;;;;;;12395270;28;20553;-38
2023/06/16 07:59:56;;;;;;;10.85;8.75;;;18.40;99.90;;;;;;12407863;28;20052;-37
2023/06/16 08:05:58;;;;;;;8.32;6.60;;;18.50;99.90;;;;;;12406811;28;20057;-37
2023/06/16 08:12:00;;;;;;;9.77;7.70;;;18.80;99.90;;;;;;12432258;28;20046;-37
2023/06/16 08:18:02;;;;;;;13.93;8.50;;;18.80;99.90;;;;;;12409452;28;20053;-37
2023/06/16 08:24:05;;;;;;;12.48;7.30;;;19.10;99.90;;;;;;12418751;28;20081;-38
2023/06/16 08:30:09;;;;;;;13.30;6.55;;;19.20;99.90;;;;;;12390315;28;20112;-37
2023/06/16 08:36:11;;;;;;;7.53;5.25;;;19.10;99.90;;;;;;12378111;28;20057;-37
2023/06/16 08:42:15;;;;;;;8.13;5.80;;;19.40;99.90;;;;;;12387302;28;20415;-37
2023/06/16 08:48:17;;;;;;;8.05;5.18;;;19.50;99.90;;;;;;12417719;28;20137;-37
2023/06/16 08:54:20;;;;;;;8.60;5.00;;;19.50;99.90;;;;;;12412445;28;20042;-38
2023/06/16 09:00:23;;;;;;;7.63;4.90;;;19.60;99.90;;;;;;12386838;28;20418;-37
2023/06/16 09:06:26;;;;;;;7.72;4.90;;;19.80;99.90;;;;;;12395394;28;20046;-37
2023/06/16 09:12:28;;;;;;;8.52;4.40;;;20.20;99.90;;;;;;12406526;28;20193;-37
2023/06/16 09:18:36;;;;;;;8.38;3.63;;;20.50;99.90;;;;;;12410540;28;20042;-37
2023/06/16 09:24:42;;;;;;;7.40;4.25;;;20.70;99.90;;;;;;12409793;28;20456;-37
2023/06/16 09:30:45;;;;;;;12.02;4.35;;;20.70;99.90;;;;;;12391830;28;20527;-37
2023/06/16 09:36:52;;;;;;;6.07;3.28;;;20.90;99.90;;;;;;12413684;28;20053;-37
2023/06/16 09:42:57;;;;;;;8.85;3.80;;;20.80;99.90;;;;;;12419983;28;20065;-37
2023/06/16 09:48:59;;;;;;;8.40;4.35;;;21.30;99.90;;;;;;12405935;28;20081;-37
2023/06/16 09:55:01;;;;;;;6.50;4.50;;;21.80;99.90;;;;;;12398155;28;20070;-37
2023/06/16 10:01:04;;;;;;;5.28;3.58;;;22.40;99.90;;;;;;12408424;28;20042;-37
2023/06/16 10:07:07;;;;;;;;;;;22.80;99.90;;;;;;12397261;28;20081;-36
2023/06/16 10:13:11;;;;;;;7.57;5.03;;;22.90;99.90;;;;;;12423890;28;20417;-37
2023/06/16 10:19:14;;;;;;;6.15;5.18;;;22.70;99.90;;;;;;12417715;28;20807;-37
2023/06/16 10:25:18;;;;;;;7.80;4.32;;;23.10;99.90;;;;;;12435619;28;20046;-37
2023/06/16 10:31:22;;;;;;;9.40;5.40;;;22.70;99.90;;;;;;12417174;28;20054;-36
2023/06/16 10:37:27;;;;;;;8.90;5.13;;;22.20;99.90;;;;;;12411284;28;20054;-37
2023/06/16 10:43:29;;;;;;;6.80;4.80;;;22.60;99.90;;;;;;12416369;28;20046;-37
2023/06/16 10:49:31;;;;;;;6.00;4.50;;;22.60;99.90;;;;;;12404540;28;20101;-39
2023/06/16 10:55:34;;;;;;;8.13;4.32;;;22.90;99.90;;;;;;12419265;28;20050;-37
2023/06/16 11:01:45;;;;;;;8.18;4.82;;;23.30;99.90;;;;;;12416855;28;20042;-37
2023/06/16 11:08:02;;;;;;;6.80;3.97;;;23.50;99.90;;;;;;12399593;28;20109;-37
2023/06/16 11:14:05;;;;;;;5.80;3.55;;;23.40;99.90;;;;;;12419726;28;20042;-37
2023/06/16 11:20:08;;;;;;;6.90;4.25;;;23.40;99.90;;;;;;12422346;28;20057;-37
2023/06/16 11:26:11;;;;;;;;;;;23.80;99.90;;;;;;12380825;28;20050;-37
2023/06/16 11:32:18;;;;;;;6.18;4.57;;;23.60;99.90;;;;;;12412560;28;20611;-37
2023/06/16 11:38:27;;;;;;;7.53;3.65;;;23.40;99.90;;;;;;12415916;28;20046;-38
2023/06/16 11:44:29;;;;;;;6.60;3.72;;;23.20;99.90;;;;;;12436559;28;20057;-37
2023/06/16 11:50:32;;;;;;;6.03;3.90;;;23.40;99.90;;;;;;12392148;28;20046;-37
2023/06/16 11:56:35;;;;;;;7.90;4.40;;;23.30;99.90;;;;;;12407418;28;20058;-37
2023/06/16 12:02:39;;;;;;;4.82;3.78;;;23.00;99.90;;;;;;12405919;28;20046;-37
2023/06/16 12:08:46;;;;;;;13.77;4.90;;;22.90;99.90;;;;;;12433582;28;20046;-37
2023/06/16 12:14:48;;;;;;;7.05;4.05;;;22.90;99.90;;;;;;12407485;28;20070;-37
2023/06/16 12:20:50;;;;;;;8.15;3.72;;;22.80;99.90;;;;;;12416391;28;20054;-37
2023/06/16 12:26:52;;;;;;;4.93;3.70;;;22.80;99.90;;;;;;12395207;28;20101;-37
2023/06/16 12:32:54;;;;;;;5.45;3.55;;;22.90;99.90;;;;;;12427595;28;20534;-37
2023/06/16 12:38:59;;;;;;;6.85;3.50;;;23.00;99.90;;;;;;12413778;28;20479;-37
2023/06/16 12:45:04;;;;;;;7.03;4.00;;;23.20;99.90;;;;;;12412854;28;20041;-37
2023/06/16 12:51:07;;;;;;;4.60;3.03;;;23.00;99.90;;;;;;12436826;28;20568;-37
2023/06/16 12:57:09;;;;;;;4.85;3.20;;;23.50;99.90;;;;;;12407620;28;20132;-37
2023/06/16 13:03:13;;;;;;;4.80;2.88;;;24.10;99.90;;;;;;12419059;28;20054;-37
2023/06/16 13:09:20;;;;;;;6.65;3.63;;;24.40;99.90;;;;;;12418816;28;20046;-37
2023/06/16 13:15:23;;;;;;;6.50;3.22;;;24.40;99.90;;;;;;12410302;28;20042;-37
2023/06/16 13:21:25;;;;;;;4.68;3.20;;;24.20;99.90;;;;;;12432416;28;20550;-37
2023/06/16 13:27:27;;;;;;;7.57;2.70;;;24.70;99.90;;;;;;12414610;28;20058;-38
2023/06/16 13:33:29;;;;;;;6.37;2.73;;;25.00;99.90;;;;;;12424606;28;20128;-37
2023/06/16 13:39:31;;;;;;;7.70;2.90;;;24.90;99.90;;;;;;12408748;28;20050;-38
2023/06/16 13:45:33;;;;;;;5.15;3.10;;;24.90;99.90;;;;;;12426114;28;20046;-38
2023/06/16 13:51:35;;;;;;;10.40;3.13;;;24.90;99.90;;;;;;12414793;28;20279;-38
2023/06/16 13:57:37;;;;;;;6.77;3.00;;;25.00;99.90;;;;;;12407706;28;20057;-37
2023/06/16 14:03:40;;;;;;;9.32;3.55;;;24.90;99.90;;;;;;12411551;28;20065;-41
2023/06/16 14:09:42;;;;;;;4.85;2.97;;;25.00;99.90;;;;;;12400339;28;20047;-38
2023/06/16 14:15:50;;;;;;;5.17;3.07;;;25.10;99.90;;;;;;12399789;28;20061;-37
2023/06/16 14:21:52;;;;;;;6.60;3.00;;;25.20;99.90;;;;;;12421030;28;20053;-37
2023/06/16 14:27:55;;;;;;;4.23;2.73;;;25.00;99.90;;;;;;12409834;28;20058;-38
2023/06/16 14:33:57;;;;;;;7.25;2.67;;;24.90;99.90;;;;;;12388860;28;20443;-38
2023/06/16 14:40:00;;;;;;;4.53;2.60;;;24.80;99.90;;;;;;12395749;28;20499;-37
2023/06/16 14:46:02;;;;;;;4.50;2.45;;;24.70;99.90;;;;;;12423025;28;20277;-38
2023/06/16 14:52:05;;;;;;;4.00;2.30;;;24.90;99.90;;;;;;12399622;28;20046;-37
2023/06/16 14:58:06;;;;;;;;;;;24.90;99.90;;;;;;12405409;28;20386;-37
2023/06/16 15:04:08;;;;;;;5.68;2.60;;;24.90;99.90;;;;;;12409312;28;19929;-38
2023/06/16 15:10:11;;;;;;;4.80;2.70;;;25.00;99.90;;;;;;12421760;28;20064;-36
2023/06/16 15:16:13;;;;;;;4.43;3.13;;;25.00;99.90;;;;;;12421524;28;20422;-36
2023/06/16 15:22:15;;;;;;;4.68;2.70;;;24.90;99.90;;;;;;12421664;28;20290;-36
2023/06/16 15:28:17;;;;;;;5.93;2.40;;;24.80;99.90;;;;;;12405909;28;20054;-37
2023/06/16 15:34:20;;;;;;;8.30;2.73;;;25.00;99.90;;;;;;12418897;28;20054;-36
2023/06/16 15:40:24;;;;;;;3.70;2.40;;;25.10;99.90;;;;;;12416501;28;20073;-37
2023/06/16 15:46:26;;;;;;;4.50;2.35;;;25.30;99.90;;;;;;12421521;28;20058;-37
2023/06/16 15:52:29;;;;;;;8.15;2.63;;;25.20;99.90;;;;;;12398394;28;20418;-37
2023/06/16 15:58:31;;;;;;;5.63;2.87;;;25.10;99.90;;;;;;12418946;28;20407;-36
2023/06/16 16:04:33;;;;;;;4.50;2.72;;;25.00;99.90;;;;;;12398744;28;20304;-37
2023/06/16 16:10:35;;;;;;;6.88;2.80;;;24.90;99.90;;;;;;12417730;28;20090;-36
2023/06/16 16:16:37;;;;;;;4.40;2.55;;;24.80;99.90;;;;;;12421729;28;20049;-36
2023/06/16 16:22:39;;;;;;;5.70;2.60;;;25.00;99.90;;;;;;12421078;28;20061;-36
2023/06/16 16:28:41;;;;;;;6.90;3.00;;;24.50;99.90;;;;;;12406469;28;20089;-36
2023/06/16 16:34:44;;;;;;;5.95;2.65;;;24.60;99.90;;;;;;12404763;28;20049;-37
2023/06/16 16:40:45;;;;;;;4.67;2.40;;;24.40;99.90;;;;;;12416760;28;20069;-37
2023/06/16 16:46:48;;;;;;;7.00;2.45;;;24.20;99.90;;;;;;12423075;28;20058;-37
2023/06/16 16:52:50;;;;;;;4.72;2.90;;;24.20;99.90;;;;;;12407022;28;20050;-37
2023/06/16 16:58:53;;;;;;;5.27;2.80;;;24.60;99.90;;;;;;12402819;28;20046;-38
2023/06/16 17:04:55;;;;;;;4.10;2.45;;;24.20;99.90;;;;;;12414974;28;20088;-39
2023/06/16 17:11:02;;;;;;;4.63;2.70;;;23.70;99.90;;;;;;12402748;28;20046;-37
2023/06/16 17:17:04;;;;;;;4.43;2.90;;;23.80;99.90;;;;;;12413640;28;20065;-38
2023/06/16 17:23:06;;;;;;;4.57;2.63;;;24.40;99.90;;;;;;12417129;28;20061;-37
2023/06/16 17:29:09;;;;;;;6.90;3.17;;;24.30;99.90;;;;;;12426961;28;20085;-37
2023/06/16 17:35:11;;;;;;;3.75;2.38;;;24.10;99.90;;;;;;12414176;28;20487;-37
2023/06/16 17:41:17;;;;;;;4.47;2.90;;;24.40;99.90;;;;;;12423229;28;20061;-38
2023/06/16 17:47:19;;;;;;;4.50;2.47;;;25.00;99.90;;;;;;12409505;28;20102;-37
2023/06/16 17:53:21;;;;;;;4.30;2.60;;;25.10;99.90;;;;;;12414825;28;20069;-37
2023/06/16 17:59:23;;;;;;;4.50;2.67;;;24.70;99.90;;;;;;12409901;28;20053;-37
2023/06/16 18:05:25;;;;;;;3.78;2.90;;;24.20;99.90;;;;;;12406174;28;20409;-37
2023/06/16 18:11:27;;;;;;;6.50;3.10;;;24.10;99.90;;;;;;12402879;28;20053;-37
2023/06/16 18:17:29;;;;;;;4.45;2.85;;;23.90;99.90;;;;;;12420492;28;20045;-38
2023/06/16 18:23:33;;;;;;;5.10;2.67;;;23.50;99.90;;;;;;12402668;28;20490;-37
2023/06/16 18:29:35;;;;;;;6.95;3.17;;;23.10;99.90;;;;;;12408810;28;20073;-37
2023/06/16 18:35:37;;;;;;;5.88;3.05;;;22.90;99.90;;;;;;12390720;28;20273;-37
2023/06/16 18:41:40;;;;;;;6.53;3.10;;;22.90;99.90;;;;;;12422837;28;20038;-36
2023/06/16 18:47:44;;;;;;;3.88;2.88;;;22.80;99.90;;;;;;12423677;28;20058;-36
2023/06/16 18:53:46;;;;;;;10.60;2.70;;;22.50;99.90;;;;;;12396381;28;20077;-37
2023/06/16 18:59:48;;;;;;;4.55;2.80;;;22.50;99.90;;;;;;12408214;28;20043;-37
2023/06/16 19:05:50;;;;;;;4.05;2.63;;;22.50;99.90;;;;;;12414030;28;20054;-36
2023/06/16 19:11:53;;;;;;;4.03;2.38;;;22.30;99.90;;;;;;12411399;28;20061;-36
2023/06/16 19:17:55;;;;;;;4.53;2.65;;;22.20;99.90;;;;;;12411240;28;20050;-36
2023/06/16 19:23:57;;;;;;;3.58;2.60;;;22.20;99.90;;;;;;12413799;28;20046;-36
2023/06/16 19:29:59;;;;;;;4.85;2.75;;;22.00;99.90;;;;;;12405721;28;20050;-36
2023/06/16 19:36:01;;;;;;;6.00;2.47;;;21.90;99.90;;;;;;12409876;28;20042;-37
2023/06/16 19:42:03;;;;;;;4.60;2.53;;;21.90;99.90;;;;;;12421910;28;20057;-36
2023/06/16 19:48:05;;;;;;;4.80;2.33;;;21.70;99.90;;;;;;12408157;28;20050;-36
2023/06/16 19:54:08;;;;;;;4.50;2.72;;;21.60;99.90;;;;;;12413605;28;20537;-36
2023/06/16 20:00:11;;;;;;;6.32;2.80;;;21.50;99.90;;;;;;12400208;28;20061;-36
2023/06/16 20:06:13;;;;;;;6.53;2.90;;;21.40;99.90;;;;;;12388367;28;20486;-36
2023/06/16 20:12:15;;;;;;;5.32;2.78;;;21.30;99.90;;;;;;12400245;28;20050;-36
2023/06/16 20:18:17;;;;;;;5.03;3.33;;;21.20;99.90;;;;;;12415205;28;20046;-36
2023/06/16 20:24:19;;;;;;;4.78;3.10;;;21.20;99.90;;;;;;12409981;28;20046;-37
2023/06/16 20:30:21;;;;;;;7.38;3.42;;;21.10;99.90;;;;;;12399839;28;20119;-37
2023/06/16 20:36:26;;;;;;;5.07;3.38;;;21.00;99.90;;;;;;12398863;28;20046;-37
2023/06/16 20:42:28;;;;;;;4.40;3.35;;;21.10;99.90;;;;;;12418132;28;20042;-36
2023/06/16 20:48:31;;;;;;;8.50;3.50;;;21.00;99.90;;;;;;12419951;28;20061;-36
2023/06/16 20:54:33;;;;;;;6.57;3.37;;;21.10;99.90;;;;;;12411482;28;20069;-36
2023/06/16 21:00:35;;;;;;;5.50;3.30;;;21.10;99.90;;;;;;12400370;28;20046;-36
2023/06/16 21:06:39;;;;;;;5.75;3.55;;;21.00;99.90;;;;;;12397160;28;20494;-36
2023/06/16 21:12:41;;;;;;;4.68;3.45;;;20.90;99.90;;;;;;12403516;28;20487;-36
2023/06/16 21:18:43;;;;;;;5.43;3.25;;;20.90;99.90;;;;;;12407435;28;20046;-37
2023/06/16 21:24:45;;;;;;;7.90;3.00;;;20.80;99.90;;;;;;12408230;28;20084;-36
2023/06/16 21:30:47;;;;;;;5.15;3.50;;;20.80;99.90;;;;;;12405325;28;20057;-37
2023/06/16 21:36:49;;;;;;;8.23;3.55;;;20.70;99.90;;;;;;12417731;28;20090;-36
2023/06/16 21:42:51;;;;;;;5.93;3.83;;;20.60;99.90;;;;;;12399108;28;20061;-37
2023/06/16 21:48:53;;;;;;;5.22;3.33;;;20.60;99.90;;;;;;12422723;28;20049;-36
2023/06/16 21:55:03;;;;;;;5.68;3.90;;;20.50;99.90;;;;;;12410963;28;20473;-36
2023/06/16 22:01:05;;;;;;;6.32;3.47;;;20.30;99.90;;;;;;12411413;28;20486;-36
2023/06/16 22:07:08;;;;;;;8.90;3.92;;;20.00;99.90;;;;;;12406378;28;20383;-36
2023/06/16 22:13:11;;;;;;;8.15;3.80;;;20.00;99.90;;;;;;12417881;28;20078;-36
2023/06/16 22:19:13;;;;;;;5.35;3.67;;;20.00;99.90;;;;;;12423029;28;20121;-36
2023/06/16 22:25:15;;;;;;;5.32;3.53;;;19.80;99.90;;;;;;12428196;28;20192;-35
2023/06/16 22:31:18;;;;;;;5.88;4.10;;;20.00;99.90;;;;;;12435621;28;20058;-36
2023/06/16 22:37:21;;;;;;;6.28;4.00;;;19.80;99.90;;;;;;12414515;28;20467;-36
2023/06/16 22:43:23;;;;;;;4.75;3.60;;;19.60;99.90;;;;;;12411521;28;20038;-36
2023/06/16 22:49:25;;;;;;;9.52;4.00;;;19.30;99.90;;;;;;12411608;28;20045;-36
2023/06/16 22:55:27;;;;;;;6.82;3.53;;;19.10;99.90;;;;;;12410417;28;20088;-36
2023/06/16 23:01:28;;;;;;;6.82;3.83;;;19.00;99.90;;;;;;12426804;28;20069;-36
2023/06/16 23:07:31;;;;;;;7.63;3.38;;;19.00;99.90;;;;;;12400068;28;20045;-36
2023/06/16 23:13:33;;;;;;;7.13;3.22;;;18.70;99.90;;;;;;12409267;28;20096;-35
2023/06/16 23:19:36;;;;;;;4.78;3.13;;;19.00;99.90;;;;;;12403535;28;20046;-36
2023/06/16 23:25:39;;;;;;;7.80;4.07;;;19.00;99.90;;;;;;12418924;28;20073;-36
2023/06/16 23:31:41;;;;;;;9.32;4.05;;;19.20;99.90;;;;;;12426761;28;20054;-36
2023/06/16 23:37:43;;;;;;;5.18;3.60;;;19.00;99.90;;;;;;12408449;28;20042;-36
2023/06/16 23:43:45;;;;;;;6.07;3.95;;;18.70;99.90;;;;;;12422818;28;20042;-35
2023/06/16 23:49:47;;;;;;;6.28;3.63;;;18.40;99.90;;;;;;12416853;28;20060;-36
2023/06/16 23:55:49;;;;;;;6.03;3.97;;;18.30;99.90;;;;;;12413186;28;20045;-35
